Time;durP1;ratioP1;P1;durP2;ratioP2;P2;SDS_P1;SDS_P2;PMS_P1;PMS_P2;Temp;Humidity;BMP_temperature;BMP_pressure;BME280_temperature;BME280_humidity;BME280_pressure;Samples;Min_cycle;Max_cycle;Signal;HPM_P1;HPM_P2
2022/03/03 00:00:15;;;;;;;30.38;15.48;;;;;;;;;;5012518;28;93631;-69
2022/03/03 00:02:42;;;;;;;26.48;15.25;;;;;;;;;;4999842;22;92671;-74
2022/03/03 00:05:20;;;;;;;32.25;15.18;;;;;;;;;;5031780;28;86346;-74
2022/03/03 00:07:46;;;;;;;28.08;15.48;;;;;;;;;;4996410;28;89025;-74
2022/03/03 00:10:13;;;;;;;30.80;16.10;;;;;;;;;;5010432;28;90096;-74
2022/03/03 00:12:39;;;;;;;28.50;16.38;;;;;;;;;;5012161;28;89007;-74
2022/03/03 00:15:05;;;;;;;25.38;14.93;;;;;;;;;;5011251;28;92384;-74
2022/03/03 00:17:32;;;;;;;25.98;16.05;;;;;;;;;;4992574;28;89666;-74
2022/03/03 00:19:58;;;;;;;28.45;16.23;;;;;;;;;;4991922;28;89154;-74
2022/03/03 00:22:24;;;;;;;26.27;16.23;;;;;;;;;;4990746;28;89902;-74
2022/03/03 00:24:52;;;;;;;25.15;15.18;;;;;;;;;;4995081;28;89418;-74
2022/03/03 00:27:19;;;;;;;27.33;15.85;;;;;;;;;;4991879;28;90897;-74
2022/03/03 00:29:45;;;;;;;25.73;15.70;;;;;;;;;;5003146;28;90028;-74
2022/03/03 00:32:11;;;;;;;28.98;15.85;;;;;;;;;;4991852;28;88957;-74
2022/03/03 00:34:38;;;;;;;27.75;15.45;;;;;;;;;;4992227;28;90010;-74
2022/03/03 00:37:04;;;;;;;25.98;15.23;;;;;;;;;;4990317;28;90583;-74
2022/03/03 00:39:31;;;;;;;27.40;15.70;;;;;;;;;;5006512;28;88875;-74
2022/03/03 00:41:57;;;;;;;27.05;15.23;;;;;;;;;;4995490;28;89460;-74
2022/03/03 00:44:23;;;;;;;24.33;14.10;;;;;;;;;;5004557;28;89208;-74
2022/03/03 00:46:49;;;;;;;23.42;14.85;;;;;;;;;;4999726;28;88917;-74
2022/03/03 00:49:16;;;;;;;26.35;14.63;;;;;;;;;;4994610;28;89749;-74
2022/03/03 00:51:42;;;;;;;22.88;14.43;;;;;;;;;;5004032;28;88875;-74
2022/03/03 00:54:08;;;;;;;22.27;14.05;;;;;;;;;;5009738;28;91178;-74
2022/03/03 00:56:35;;;;;;;23.90;14.45;;;;;;;;;;4992780;28;89507;-74
2022/03/03 00:59:01;;;;;;;25.17;13.80;;;;;;;;;;4991514;28;88780;-74
2022/03/03 01:01:27;;;;;;;27.25;16.38;;;;;;;;;;4990451;28;90935;-74
2022/03/03 01:03:54;;;;;;;23.08;14.20;;;;;;;;;;5000250;28;90608;-74
2022/03/03 01:06:20;;;;;;;27.17;14.82;;;;;;;;;;5011936;28;89119;-74
2022/03/03 01:08:47;;;;;;;26.95;15.27;;;;;;;;;;5033180;28;89760;-74
2022/03/03 01:11:13;;;;;;;26.00;15.30;;;;;;;;;;5029573;28;90927;-73
2022/03/03 01:13:39;;;;;;;26.08;15.38;;;;;;;;;;5031894;28;92931;-74
2022/03/03 01:16:06;;;;;;;24.58;14.85;;;;;;;;;;5011598;27;89103;-74
2022/03/03 01:18:32;;;;;;;25.90;16.02;;;;;;;;;;4997833;28;89026;-74
2022/03/03 01:20:58;;;;;;;26.83;15.43;;;;;;;;;;4997812;28;88893;-74
2022/03/03 01:23:25;;;;;;;24.02;14.30;;;;;;;;;;4997503;28;89763;-74
2022/03/03 01:25:51;;;;;;;25.15;15.60;;;;;;;;;;4998030;28;88927;-74
2022/03/03 01:28:17;;;;;;;21.33;13.77;;;;;;;;;;4997808;28;90064;-74
2022/03/03 01:30:44;;;;;;;24.92;15.65;;;;;;;;;;5000542;28;89888;-74
2022/03/03 01:33:12;;;;;;;31.55;15.88;;;;;;;;;;4997259;28;90043;-74
2022/03/03 01:35:39;;;;;;;25.45;14.52;;;;;;;;;;4997674;28;89742;-74
2022/03/03 01:38:05;;;;;;;26.02;15.63;;;;;;;;;;4997600;28;90393;-74
2022/03/03 01:40:32;;;;;;;25.92;14.98;;;;;;;;;;4997923;28;91422;-75
2022/03/03 01:42:58;;;;;;;24.23;15.45;;;;;;;;;;4996825;28;89448;-74
2022/03/03 01:45:24;;;;;;;27.63;16.48;;;;;;;;;;4982138;28;88958;-73
2022/03/03 01:47:51;;;;;;;26.50;15.45;;;;;;;;;;4997334;28;89715;-74
2022/03/03 01:50:17;;;;;;;24.83;15.18;;;;;;;;;;4998061;28;89341;-74
2022/03/03 01:52:43;;;;;;;33.65;16.42;;;;;;;;;;5007567;28;88920;-74
2022/03/03 01:55:10;;;;;;;30.63;16.08;;;;;;;;;;4990145;28;89535;-74
2022/03/03 01:57:38;;;;;;;30.08;16.23;;;;;;;;;;5006803;28;88871;-74
2022/03/03 02:00:05;;;;;;;27.38;16.10;;;;;;;;;;5012369;28;90154;-74
2022/03/03 02:02:31;;;;;;;29.83;15.95;;;;;;;;;;5015946;28;89699;-74
2022/03/03 02:04:58;;;;;;;32.08;17.05;;;;;;;;;;5014848;28;89465;-74
2022/03/03 02:07:25;;;;;;;33.08;17.17;;;;;;;;;;5003157;28;90194;-74
2022/03/03 02:09:51;;;;;;;28.25;16.10;;;;;;;;;;4996829;28;90045;-74
2022/03/03 02:12:17;;;;;;;24.73;15.60;;;;;;;;;;4997050;28;88991;-74
2022/03/03 02:14:45;;;;;;;39.17;16.13;;;;;;;;;;4999051;28;88852;-74
2022/03/03 02:17:12;;;;;;;31.48;16.63;;;;;;;;;;4997025;28;89010;-74
2022/03/03 02:19:38;;;;;;;30.10;17.15;;;;;;;;;;5011192;28;90213;-74
2022/03/03 02:22:05;;;;;;;30.10;16.55;;;;;;;;;;5016489;28;92542;-74
2022/03/03 02:24:31;;;;;;;30.10;16.10;;;;;;;;;;5016884;28;88923;-74
2022/03/03 02:26:59;;;;;;;29.38;17.27;;;;;;;;;;5015515;28;89836;-74
2022/03/03 02:29:25;;;;;;;33.35;17.05;;;;;;;;;;5016440;28;89737;-74
2022/03/03 02:31:52;;;;;;;29.95;16.80;;;;;;;;;;5016597;28;88839;-74
2022/03/03 02:34:18;;;;;;;28.00;16.38;;;;;;;;;;5006457;28;90346;-74
2022/03/03 02:36:44;;;;;;;30.15;16.63;;;;;;;;;;4976114;28;88859;-74
2022/03/03 02:39:11;;;;;;;28.70;16.45;;;;;;;;;;4976474;28;90005;-73
2022/03/03 02:41:37;;;;;;;30.83;16.25;;;;;;;;;;4976862;28;90061;-74
2022/03/03 02:44:04;;;;;;;26.75;16.33;;;;;;;;;;4975917;28;88894;-74
2022/03/03 02:46:31;;;;;;;29.52;16.92;;;;;;;;;;4990237;28;90032;-74
2022/03/03 02:48:57;;;;;;;31.80;17.23;;;;;;;;;;4994312;28;90206;-74
2022/03/03 02:51:24;;;;;;;30.85;16.75;;;;;;;;;;5006594;28;88950;-74
2022/03/03 02:53:50;;;;;;;30.30;17.17;;;;;;;;;;5016180;28;89802;-74
2022/03/03 02:56:17;;;;;;;27.95;17.10;;;;;;;;;;5016165;28;89944;-74
2022/03/03 02:58:43;;;;;;;28.65;16.55;;;;;;;;;;4996441;28;90694;-74
2022/03/03 03:01:10;;;;;;;38.53;18.30;;;;;;;;;;5009175;28;89891;-74
2022/03/03 03:03:36;;;;;;;30.42;16.52;;;;;;;;;;5001013;28;89061;-74
2022/03/03 03:06:03;;;;;;;28.98;16.42;;;;;;;;;;4993579;28;89874;-73
2022/03/03 03:08:30;;;;;;;30.65;17.67;;;;;;;;;;4996338;28;89651;-74
2022/03/03 03:10:56;;;;;;;34.22;16.50;;;;;;;;;;5003186;28;88941;-74
2022/03/03 03:13:22;;;;;;;36.22;17.80;;;;;;;;;;5005784;28;89967;-74
2022/03/03 03:15:49;;;;;;;34.17;16.60;;;;;;;;;;4997049;28;89571;-74
2022/03/03 03:18:18;;;;;;;30.60;16.33;;;;;;;;;;4999097;28;89534;-74
2022/03/03 03:20:46;;;;;;;29.47;17.30;;;;;;;;;;4999458;28;92111;-74
2022/03/03 03:23:13;;;;;;;29.55;16.38;;;;;;;;;;5014221;28;89102;-74
2022/03/03 03:25:43;;;;;;;28.80;16.35;;;;;;;;;;5015850;28;89690;-74
2022/03/03 03:28:10;;;;;;;33.05;16.45;;;;;;;;;;4997915;28;89445;-74
2022/03/03 03:30:36;;;;;;;28.95;16.90;;;;;;;;;;5000316;28;89111;-76
2022/03/03 03:33:02;;;;;;;29.15;16.88;;;;;;;;;;5014782;28;89935;-74
2022/03/03 03:35:29;;;;;;;29.88;17.20;;;;;;;;;;5015485;28;91533;-75
2022/03/03 03:37:55;;;;;;;37.42;16.65;;;;;;;;;;5012917;28;88908;-74
2022/03/03 03:40:22;;;;;;;29.00;16.52;;;;;;;;;;5015242;28;90160;-74
2022/03/03 03:42:48;;;;;;;27.52;16.02;;;;;;;;;;4995843;28;90041;-74
2022/03/03 03:45:15;;;;;;;29.95;16.38;;;;;;;;;;4995919;28;89054;-74
2022/03/03 03:47:41;;;;;;;29.77;16.58;;;;;;;;;;4997806;28;89590;-74
2022/03/03 03:50:09;;;;;;;28.08;16.33;;;;;;;;;;5012837;28;88949;-74
2022/03/03 03:52:36;;;;;;;26.63;15.80;;;;;;;;;;4995608;28;89830;-74
2022/03/03 03:55:03;;;;;;;28.63;16.08;;;;;;;;;;4995221;28;90801;-74
2022/03/03 03:57:30;;;;;;;29.27;16.80;;;;;;;;;;4994858;28;89040;-74
2022/03/03 03:59:56;;;;;;;30.50;17.42;;;;;;;;;;5007944;28;90224;-74
2022/03/03 04:02:22;;;;;;;28.10;15.68;;;;;;;;;;5001160;28;89329;-74
2022/03/03 04:04:49;;;;;;;40.00;17.23;;;;;;;;;;4994525;28;90008;-74
2022/03/03 04:07:15;;;;;;;30.58;16.95;;;;;;;;;;4994963;28;89459;-74
2022/03/03 04:09:41;;;;;;;32.38;17.83;;;;;;;;;;4994662;28;89443;-74
2022/03/03 04:12:08;;;;;;;32.47;17.95;;;;;;;;;;5010720;28;91399;-74
2022/03/03 04:14:34;;;;;;;34.08;17.20;;;;;;;;;;5009003;28;89888;-74
2022/03/03 04:17:00;;;;;;;37.88;18.17;;;;;;;;;;5009241;28;89202;-74
2022/03/03 04:19:27;;;;;;;38.50;17.13;;;;;;;;;;5013997;28;90111;-74
2022/03/03 04:21:53;;;;;;;29.15;16.42;;;;;;;;;;5003124;28;90521;-74
2022/03/03 04:24:19;;;;;;;38.00;17.25;;;;;;;;;;5000706;28;89905;-74
2022/03/03 04:26:46;;;;;;;33.75;17.35;;;;;;;;;;5014472;28;89609;-74
2022/03/03 04:29:12;;;;;;;34.13;17.27;;;;;;;;;;5004177;28;89145;-74
2022/03/03 04:31:38;;;;;;;28.77;16.42;;;;;;;;;;4993957;28;90138;-74
2022/03/03 04:34:05;;;;;;;30.52;16.40;;;;;;;;;;4994393;28;90527;-74
2022/03/03 04:36:31;;;;;;;31.85;17.05;;;;;;;;;;4983471;28;89269;-74
2022/03/03 04:38:57;;;;;;;33.00;17.20;;;;;;;;;;4989082;28;89059;-74
2022/03/03 04:41:24;;;;;;;28.30;17.20;;;;;;;;;;4985374;28;90110;-73
2022/03/03 04:43:50;;;;;;;34.22;17.88;;;;;;;;;;4997020;28;89693;-74
2022/03/03 04:46:16;;;;;;;30.00;17.38;;;;;;;;;;4994181;28;90637;-74
2022/03/03 04:48:43;;;;;;;32.72;17.77;;;;;;;;;;4993034;28;89522;-74
2022/03/03 04:51:09;;;;;;;33.75;18.13;;;;;;;;;;4996078;28;90261;-74
2022/03/03 04:53:35;;;;;;;31.63;17.05;;;;;;;;;;4998083;28;90672;-74
2022/03/03 04:56:02;;;;;;;32.47;17.80;;;;;;;;;;4997247;28;89378;-74
2022/03/03 04:58:28;;;;;;;37.90;18.25;;;;;;;;;;4997922;28;90284;-74
2022/03/03 05:00:54;;;;;;;33.30;17.92;;;;;;;;;;4996947;28;89404;-74
2022/03/03 05:03:21;;;;;;;28.33;16.17;;;;;;;;;;4996857;28;89057;-74
2022/03/03 05:05:47;;;;;;;30.05;17.55;;;;;;;;;;5000258;28;90203;-75
2022/03/03 05:08:13;;;;;;;31.67;16.27;;;;;;;;;;4997163;28;89760;-74
2022/03/03 05:10:40;;;;;;;31.08;18.52;;;;;;;;;;4997566;28;90112;-74
2022/03/03 05:13:06;;;;;;;26.48;16.25;;;;;;;;;;4997211;28;89345;-74
2022/03/03 05:15:33;;;;;;;34.80;18.05;;;;;;;;;;4997385;28;88903;-74
2022/03/03 05:17:59;;;;;;;37.15;18.15;;;;;;;;;;5007852;28;89726;-74
2022/03/03 05:20:25;;;;;;;33.90;17.95;;;;;;;;;;5017494;28;89556;-74
2022/03/03 05:22:52;;;;;;;34.05;17.20;;;;;;;;;;5017055;28;88885;-74
2022/03/03 05:25:18;;;;;;;32.95;17.58;;;;;;;;;;5013083;28;93956;-74
2022/03/03 05:27:45;;;;;;;29.88;17.48;;;;;;;;;;5019163;28;89940;-74
2022/03/03 05:30:11;;;;;;;40.60;18.88;;;;;;;;;;5004799;28;90008;-74
2022/03/03 05:32:37;;;;;;;30.60;16.92;;;;;;;;;;5016424;28;91327;-74
2022/03/03 05:35:04;;;;;;;34.00;18.55;;;;;;;;;;5012925;28;88855;-74
2022/03/03 05:37:31;;;;;;;33.67;18.35;;;;;;;;;;5017404;28;90184;-74
2022/03/03 05:39:57;;;;;;;34.85;18.08;;;;;;;;;;5012825;28;89677;-75
2022/03/03 05:42:24;;;;;;;29.48;17.40;;;;;;;;;;4998793;28;89161;-74
2022/03/03 05:44:51;;;;;;;34.28;17.55;;;;;;;;;;5004747;28;91326;-74
2022/03/03 05:47:18;;;;;;;35.15;18.65;;;;;;;;;;4994771;28;89622;-74
2022/03/03 05:49:46;;;;;;;32.03;16.90;;;;;;;;;;5017611;28;88847;-74
2022/03/03 05:52:13;;;;;;;25.50;15.95;;;;;;;;;;5004311;28;89063;-74
2022/03/03 05:54:40;;;;;;;34.63;17.65;;;;;;;;;;5007127;28;89159;-75
2022/03/03 05:57:10;;;;;;;32.72;17.77;;;;;;;;;;4996193;28;90056;-74
2022/03/03 05:59:36;;;;;;;35.58;17.98;;;;;;;;;;4999534;28;89103;-74
2022/03/03 06:02:02;;;;;;;35.45;17.17;;;;;;;;;;4995373;28;91402;-75
2022/03/03 06:04:29;;;;;;;32.15;17.55;;;;;;;;;;4996369;28;91313;-75
2022/03/03 06:07:03;;;;;;;30.35;17.38;;;;;;;;;;4996150;28;89419;-74
2022/03/03 06:09:31;;;;;;;36.10;17.48;;;;;;;;;;4995119;28;89370;-74
2022/03/03 06:12:07;;;;;;;33.17;16.55;;;;;;;;;;4998715;28;89552;-74
2022/03/03 06:14:40;;;;;;;31.83;17.13;;;;;;;;;;4996237;28;88914;-75
2022/03/03 06:17:07;;;;;;;29.90;16.27;;;;;;;;;;4996312;28;93929;-74
2022/03/03 06:19:39;;;;;;;31.02;16.40;;;;;;;;;;4995734;28;89554;-74
2022/03/03 06:22:06;;;;;;;34.85;17.52;;;;;;;;;;4994983;28;90852;-74
2022/03/03 06:24:33;;;;;;;34.42;16.65;;;;;;;;;;4995995;28;90083;-74
2022/03/03 06:27:00;;;;;;;33.75;17.63;;;;;;;;;;4995446;28;90149;-74
2022/03/03 06:29:26;;;;;;;35.33;16.77;;;;;;;;;;4995595;28;88997;-74
2022/03/03 06:31:53;;;;;;;41.80;18.35;;;;;;;;;;4998697;28;90050;-74
2022/03/03 06:34:20;;;;;;;34.50;16.15;;;;;;;;;;4996034;28;88846;-74
2022/03/03 06:36:47;;;;;;;25.95;16.05;;;;;;;;;;4993761;28;93896;-74
2022/03/03 06:39:13;;;;;;;30.83;16.48;;;;;;;;;;4995476;28;90842;-75
2022/03/03 06:41:39;;;;;;;35.10;17.33;;;;;;;;;;5011775;28;89190;-74
2022/03/03 06:44:06;;;;;;;33.15;18.02;;;;;;;;;;4997388;28;91095;-75
2022/03/03 06:46:32;;;;;;;34.25;18.35;;;;;;;;;;4996231;28;91198;-74
2022/03/03 06:48:58;;;;;;;28.92;17.60;;;;;;;;;;5004122;28;89477;-74
2022/03/03 06:51:27;;;;;;;29.95;16.55;;;;;;;;;;4998988;28;90998;-77
2022/03/03 06:53:55;;;;;;;31.95;17.13;;;;;;;;;;5000134;28;89374;-75
2022/03/03 06:56:23;;;;;;;29.20;16.65;;;;;;;;;;5001974;28;90083;-73
2022/03/03 06:58:50;;;;;;;27.52;15.90;;;;;;;;;;4997963;28;89767;-73
2022/03/03 07:01:17;;;;;;;31.83;17.45;;;;;;;;;;4997722;28;91632;-73
2022/03/03 07:03:44;;;;;;;30.40;17.50;;;;;;;;;;4996806;28;89708;-73
2022/03/03 07:06:13;;;;;;;34.40;17.80;;;;;;;;;;4994684;28;89431;-73
2022/03/03 07:08:39;;;;;;;40.28;18.20;;;;;;;;;;4983669;28;89267;-72
2022/03/03 07:11:06;;;;;;;33.45;17.52;;;;;;;;;;4994970;28;91065;-72
2022/03/03 07:13:32;;;;;;;36.13;17.40;;;;;;;;;;4993500;28;89417;-72
2022/03/03 07:16:12;;;;;;;32.20;17.30;;;;;;;;;;4998966;28;89020;-73
2022/03/03 07:18:40;;;;;;;36.53;18.55;;;;;;;;;;4995505;28;90804;-72
2022/03/03 07:21:29;;;;;;;37.28;19.65;;;;;;;;;;4996076;28;90115;-72
2022/03/03 07:24:02;;;;;;;35.22;19.20;;;;;;;;;;4995093;28;89891;-73
2022/03/03 07:26:29;;;;;;;32.65;18.83;;;;;;;;;;4995589;28;90141;-72
2022/03/03 07:28:59;;;;;;;34.38;18.23;;;;;;;;;;4994199;28;89283;-72
2022/03/03 07:31:28;;;;;;;30.55;17.90;;;;;;;;;;4999633;28;90812;-73
2022/03/03 07:33:55;;;;;;;37.03;17.95;;;;;;;;;;4994410;28;89456;-72
2022/03/03 07:36:23;;;;;;;36.78;18.23;;;;;;;;;;4994522;28;90715;-72
2022/03/03 07:38:58;;;;;;;33.60;20.15;;;;;;;;;;5015250;28;89950;-72
2022/03/03 07:41:25;;;;;;;32.58;18.75;;;;;;;;;;5014762;28;89000;-71
2022/03/03 07:43:55;;;;;;;38.30;19.67;;;;;;;;;;5012475;28;89921;-72
2022/03/03 07:46:22;;;;;;;33.45;18.88;;;;;;;;;;4994820;28;89652;-72
2022/03/03 07:48:51;;;;;;;32.80;19.42;;;;;;;;;;4994859;28;88916;-71
2022/03/03 07:51:18;;;;;;;36.25;18.92;;;;;;;;;;4998891;28;90077;-72
2022/03/03 07:53:44;;;;;;;39.88;19.20;;;;;;;;;;5006787;28;90406;-71
2022/03/03 07:56:14;;;;;;;32.58;19.00;;;;;;;;;;4983849;28;89004;-70
2022/03/03 07:58:44;;;;;;;34.40;19.83;;;;;;;;;;4992960;28;89358;-72
2022/03/03 08:01:14;;;;;;;32.20;17.90;;;;;;;;;;4997176;28;89231;-72
2022/03/03 08:03:44;;;;;;;33.05;19.10;;;;;;;;;;4993810;28;89754;-72
2022/03/03 08:06:11;;;;;;;39.50;20.20;;;;;;;;;;4975029;28;89578;-72
2022/03/03 08:08:38;;;;;;;35.85;20.63;;;;;;;;;;4994295;28;89943;-72
2022/03/03 08:11:05;;;;;;;39.03;20.40;;;;;;;;;;4993582;28;89964;-71
2022/03/03 08:13:32;;;;;;;36.95;20.48;;;;;;;;;;4994793;28;89503;-71
2022/03/03 08:15:58;;;;;;;43.10;20.60;;;;;;;;;;4995173;28;89824;-72
2022/03/03 08:18:26;;;;;;;38.15;19.30;;;;;;;;;;4993225;28;88964;-71
2022/03/03 08:20:54;;;;;;;41.72;20.50;;;;;;;;;;4994222;28;89681;-71
2022/03/03 08:23:23;;;;;;;39.45;19.95;;;;;;;;;;4996936;28;89926;-72
2022/03/03 08:25:50;;;;;;;38.55;21.23;;;;;;;;;;5011147;28;89473;-71
2022/03/03 08:28:17;;;;;;;30.63;18.95;;;;;;;;;;5004545;28;89291;-70
2022/03/03 08:30:44;;;;;;;38.97;19.95;;;;;;;;;;4998277;28;90046;-71
2022/03/03 08:33:18;;;;;;;38.78;19.63;;;;;;;;;;4988177;28;89548;-71
2022/03/03 08:35:55;;;;;;;38.80;19.15;;;;;;;;;;4995288;28;89031;-71
2022/03/03 08:38:36;;;;;;;35.33;18.88;;;;;;;;;;5003388;28;89744;-72
2022/03/03 08:41:03;;;;;;;31.55;19.23;;;;;;;;;;4977004;28;89509;-72
2022/03/03 08:43:30;;;;;;;40.22;19.45;;;;;;;;;;4998391;28;89798;-73
2022/03/03 08:46:02;;;;;;;33.72;19.80;;;;;;;;;;4997434;28;89718;-72
2022/03/03 08:48:30;;;;;;;34.33;20.35;;;;;;;;;;4997221;28;89570;-73
2022/03/03 08:50:57;;;;;;;36.53;20.35;;;;;;;;;;4993657;28;89991;-71
2022/03/03 08:53:23;;;;;;;33.42;17.92;;;;;;;;;;4990024;28;90501;-73
2022/03/03 08:55:50;;;;;;;34.05;18.50;;;;;;;;;;4996179;28;89225;-71
2022/03/03 08:58:16;;;;;;;30.77;19.23;;;;;;;;;;4988110;28;90060;-70
2022/03/03 09:00:43;;;;;;;31.08;18.13;;;;;;;;;;4982991;28;90070;-71
2022/03/03 09:03:09;;;;;;;29.05;17.67;;;;;;;;;;4987672;28;89117;-71
2022/03/03 09:05:36;;;;;;;28.55;16.90;;;;;;;;;;4995810;28;89703;-71
2022/03/03 09:08:02;;;;;;;28.30;15.27;;;;;;;;;;4996181;28;89078;-72
2022/03/03 09:10:28;;;;;;;27.63;14.82;;;;;;;;;;4995648;28;90080;-72
2022/03/03 09:12:55;;;;;;;23.77;14.65;;;;;;;;;;5000840;28;89633;-72
2022/03/03 09:15:21;;;;;;;28.50;15.55;;;;;;;;;;5008153;28;90758;-73
2022/03/03 09:17:47;;;;;;;24.42;15.02;;;;;;;;;;4997012;28;91477;-72
2022/03/03 09:20:14;;;;;;;23.25;14.25;;;;;;;;;;4996770;28;89711;-73
2022/03/03 09:22:41;;;;;;;27.00;15.18;;;;;;;;;;4996787;28;89049;-71
2022/03/03 09:25:08;;;;;;;25.98;15.27;;;;;;;;;;5009927;28;90142;-74
2022/03/03 09:27:34;;;;;;;26.55;14.48;;;;;;;;;;5020153;28;89641;-73
2022/03/03 09:30:02;;;;;;;23.30;13.65;;;;;;;;;;4997628;28;90980;-73
2022/03/03 09:32:28;;;;;;;25.92;14.73;;;;;;;;;;5001308;28;89541;-73
2022/03/03 09:34:55;;;;;;;25.08;14.02;;;;;;;;;;5016312;28;89850;-73
2022/03/03 09:37:21;;;;;;;29.95;14.15;;;;;;;;;;5015817;28;90031;-73
2022/03/03 09:39:49;;;;;;;27.23;14.13;;;;;;;;;;5000227;28;91145;-73
2022/03/03 09:42:16;;;;;;;23.52;14.25;;;;;;;;;;4996683;28;90161;-73
2022/03/03 09:44:43;;;;;;;23.00;13.85;;;;;;;;;;4995330;28;90532;-73
2022/03/03 09:47:11;;;;;;;20.60;13.10;;;;;;;;;;4997914;28;89626;-72
2022/03/03 09:49:39;;;;;;;24.45;13.35;;;;;;;;;;5014122;28;88868;-72
2022/03/03 09:52:16;;;;;;;23.73;13.88;;;;;;;;;;4999995;28;89529;-71
2022/03/03 09:54:43;;;;;;;20.88;13.27;;;;;;;;;;5003637;28;89053;-72
2022/03/03 09:57:09;;;;;;;20.08;12.32;;;;;;;;;;4995489;28;89698;-67
2022/03/03 09:59:36;;;;;;;26.15;13.40;;;;;;;;;;4996395;28;89456;-71
2022/03/03 10:02:03;;;;;;;22.63;13.43;;;;;;;;;;4999966;28;89670;-71
2022/03/03 10:04:30;;;;;;;16.65;12.85;;;;;;;;;;4995137;28;90274;-72
2022/03/03 10:07:01;;;;;;;14.70;11.68;;;;;;;;;;4993833;28;89896;-73
2022/03/03 10:09:27;;;;;;;18.83;13.13;;;;;;;;;;4996473;28;89456;-74
2022/03/03 10:12:01;;;;;;;18.45;11.85;;;;;;;;;;4999614;28;91148;-72
2022/03/03 10:14:28;;;;;;;16.45;11.57;;;;;;;;;;4976507;28;89022;-72
2022/03/03 10:16:55;;;;;;;17.85;11.85;;;;;;;;;;4994915;28;90137;-73
2022/03/03 10:19:50;;;;;;;23.08;12.23;;;;;;;;;;5007749;28;89529;-71
2022/03/03 10:22:16;;;;;;;14.90;10.73;;;;;;;;;;4994650;28;89085;-72
2022/03/03 10:24:43;;;;;;;19.42;10.68;;;;;;;;;;5003770;28;89727;-72
2022/03/03 10:27:09;;;;;;;11.93;9.85;;;;;;;;;;5015890;28;89671;-73
2022/03/03 10:29:36;;;;;;;13.52;9.73;;;;;;;;;;5001311;28;89567;-73
2022/03/03 10:32:02;;;;;;;13.00;10.52;;;;;;;;;;4996073;28;88056;-72
2022/03/03 10:34:30;;;;;;;12.45;10.30;;;;;;;;;;4997162;28;89390;-72
2022/03/03 10:36:57;;;;;;;14.25;9.93;;;;;;;;;;4994826;28;89963;-72
2022/03/03 10:39:23;;;;;;;11.55;10.10;;;;;;;;;;4995884;28;89073;-73
2022/03/03 10:41:54;;;;;;;13.43;9.82;;;;;;;;;;4996839;28;89946;-71
2022/03/03 10:44:22;;;;;;;13.38;10.15;;;;;;;;;;4978021;28;91218;-71
2022/03/03 10:47:11;;;;;;;11.05;9.88;;;;;;;;;;4992929;28;89497;-71
2022/03/03 10:49:38;;;;;;;15.30;10.43;;;;;;;;;;4995444;28;88874;-71
2022/03/03 10:52:11;;;;;;;12.68;10.05;;;;;;;;;;4996231;28;88922;-71
2022/03/03 10:54:51;;;;;;;18.92;10.88;;;;;;;;;;4998425;28;89961;-71
2022/03/03 10:57:30;;;;;;;13.48;9.75;;;;;;;;;;4994529;28;90265;-71
2022/03/03 11:00:00;;;;;;;13.38;9.32;;;;;;;;;;4999818;28;88620;-70
2022/03/03 11:02:28;;;;;;;11.77;9.13;;;;;;;;;;5001285;28;89245;-70
2022/03/03 11:04:55;;;;;;;14.48;9.23;;;;;;;;;;5007751;28;88234;-69
2022/03/03 11:07:22;;;;;;;10.57;9.32;;;;;;;;;;4996151;28;88904;-69
2022/03/03 11:09:49;;;;;;;10.40;8.27;;;;;;;;;;4996297;28;89178;-70
2022/03/03 11:12:16;;;;;;;11.18;8.93;;;;;;;;;;5003177;28;88366;-72
2022/03/03 11:14:43;;;;;;;9.15;8.25;;;;;;;;;;4996107;28;88275;-72
2022/03/03 11:17:18;;;;;;;19.98;8.48;;;;;;;;;;4998893;28;89014;-74
2022/03/03 11:19:45;;;;;;;12.68;8.95;;;;;;;;;;4995776;28;88672;-69
2022/03/03 11:22:14;;;;;;;15.48;8.25;;;;;;;;;;5000183;28;88586;-72
2022/03/03 11:24:41;;;;;;;13.07;8.75;;;;;;;;;;5000200;28;88048;-72
2022/03/03 11:27:08;;;;;;;9.88;8.57;;;;;;;;;;5001325;28;88156;-69
2022/03/03 11:29:38;;;;;;;13.10;8.40;;;;;;;;;;5006171;28;88713;-68
2022/03/03 11:32:22;;;;;;;9.00;7.70;;;;;;;;;;5009239;28;88205;-69
2022/03/03 11:34:49;;;;;;;11.77;7.82;;;;;;;;;;4994659;28;88988;-68
2022/03/03 11:37:17;;;;;;;13.27;8.10;;;;;;;;;;4996338;28;89285;-68
2022/03/03 11:39:45;;;;;;;13.13;8.05;;;;;;;;;;4998451;28;88180;-68
2022/03/03 11:42:24;;;;;;;9.65;7.95;;;;;;;;;;4996588;28;89017;-68
2022/03/03 11:44:51;;;;;;;8.73;7.80;;;;;;;;;;4994954;28;88675;-67
2022/03/03 11:47:19;;;;;;;13.82;8.45;;;;;;;;;;4996106;28;89289;-70
2022/03/03 11:49:58;;;;;;;12.95;8.55;;;;;;;;;;4998361;28;89035;-69
2022/03/03 11:52:24;;;;;;;9.73;8.02;;;;;;;;;;4996739;28;87958;-68
2022/03/03 11:54:58;;;;;;;9.15;8.25;;;;;;;;;;4993343;28;88377;-70
2022/03/03 11:57:27;;;;;;;11.98;8.60;;;;;;;;;;4979425;28;88914;-69
2022/03/03 12:00:03;;;;;;;14.20;8.30;;;;;;;;;;4975039;28;88158;-69
2022/03/03 12:02:30;;;;;;;9.40;8.40;;;;;;;;;;4982190;28;89445;-71
2022/03/03 12:05:15;;;;;;;9.65;8.65;;;;;;;;;;4994152;28;88086;-68
2022/03/03 12:07:46;;;;;;;10.63;8.70;;;;;;;;;;5001015;28;88834;-68
2022/03/03 12:10:18;;;;;;;15.20;9.25;;;;;;;;;;5015018;28;89870;-68
2022/03/03 12:12:44;;;;;;;10.70;8.20;;;;;;;;;;5014411;28;89795;-70
2022/03/03 12:15:10;;;;;;;10.48;8.70;;;;;;;;;;5004411;28;89619;-69
2022/03/03 12:17:43;;;;;;;11.48;9.15;;;;;;;;;;4996226;28;88761;-69
2022/03/03 12:20:24;;;;;;;12.13;8.68;;;;;;;;;;4995385;28;88760;-69
2022/03/03 12:23:11;;;;;;;9.25;8.30;;;;;;;;;;4994844;28;91163;-70
2022/03/03 12:25:50;;;;;;;11.30;8.90;;;;;;;;;;4998367;28;89172;-70
2022/03/03 12:28:22;;;;;;;16.25;9.45;;;;;;;;;;4995884;28;90283;-69
2022/03/03 12:30:50;;;;;;;13.02;9.20;;;;;;;;;;4994263;28;88787;-69
2022/03/03 12:33:22;;;;;;;11.75;8.98;;;;;;;;;;4995386;28;89201;-70
2022/03/03 12:35:48;;;;;;;14.77;9.80;;;;;;;;;;4993010;28;89076;-71
2022/03/03 12:38:15;;;;;;;15.10;10.18;;;;;;;;;;4995235;28;88802;-70
2022/03/03 12:40:42;;;;;;;17.42;10.50;;;;;;;;;;4994150;28;89167;-72
2022/03/03 12:43:15;;;;;;;12.30;9.88;;;;;;;;;;5012792;28;93112;-72
2022/03/03 12:45:42;;;;;;;11.10;9.68;;;;;;;;;;5002303;28;89041;-73
2022/03/03 12:48:09;;;;;;;12.27;9.70;;;;;;;;;;4996239;28;88468;-71
2022/03/03 12:50:35;;;;;;;11.93;9.07;;;;;;;;;;4995113;28;88642;-72
2022/03/03 12:53:06;;;;;;;16.73;9.63;;;;;;;;;;4994955;28;87732;-72
2022/03/03 12:55:49;;;;;;;14.35;9.77;;;;;;;;;;4994848;28;87986;-70
2022/03/03 12:58:17;;;;;;;17.55;10.50;;;;;;;;;;5012047;28;89068;-71
2022/03/03 13:00:44;;;;;;;14.52;10.65;;;;;;;;;;5012841;28;89812;-72
2022/03/03 13:03:11;;;;;;;17.48;10.32;;;;;;;;;;5013425;28;89230;-72
2022/03/03 13:05:39;;;;;;;16.52;10.85;;;;;;;;;;4995262;28;90245;-71
2022/03/03 13:08:07;;;;;;;15.48;10.20;;;;;;;;;;5001713;28;89804;-72
2022/03/03 13:10:34;;;;;;;13.77;10.10;;;;;;;;;;5014002;28;88916;-72
2022/03/03 13:13:01;;;;;;;15.55;10.20;;;;;;;;;;5016531;28;88948;-72
2022/03/03 13:15:28;;;;;;;15.27;10.63;;;;;;;;;;4999479;28;89690;-71
2022/03/03 13:18:15;;;;;;;13.77;10.10;;;;;;;;;;4998430;28;89323;-72
2022/03/03 13:20:42;;;;;;;17.25;9.52;;;;;;;;;;4976665;28;90039;-67
2022/03/03 13:23:11;;;;;;;12.70;10.10;;;;;;;;;;4978025;28;89908;-66
2022/03/03 13:25:38;;;;;;;13.60;10.27;;;;;;;;;;4994525;28;89535;-65
2022/03/03 13:28:04;;;;;;;12.23;10.43;;;;;;;;;;5002384;28;89945;-68
2022/03/03 13:30:31;;;;;;;15.32;10.38;;;;;;;;;;5020382;28;89423;-67
2022/03/03 13:32:57;;;;;;;13.30;11.00;;;;;;;;;;5015125;28;90191;-68
2022/03/03 13:35:26;;;;;;;16.13;11.05;;;;;;;;;;5016839;28;90249;-69
2022/03/03 13:37:52;;;;;;;15.00;10.52;;;;;;;;;;5000313;28;88917;-69
2022/03/03 13:40:23;;;;;;;17.02;10.20;;;;;;;;;;4996808;28;89003;-68
2022/03/03 13:42:53;;;;;;;15.55;10.43;;;;;;;;;;4996298;28;89340;-69
2022/03/03 13:45:23;;;;;;;12.57;9.35;;;;;;;;;;5002468;28;90076;-70
2022/03/03 13:47:59;;;;;;;13.90;10.45;;;;;;;;;;5002284;28;90097;-67
2022/03/03 13:50:25;;;;;;;16.17;10.85;;;;;;;;;;5005823;28;91147;-66
2022/03/03 13:53:10;;;;;;;16.92;10.38;;;;;;;;;;5017700;28;90814;-67
2022/03/03 13:55:37;;;;;;;15.63;10.52;;;;;;;;;;5016721;28;89381;-68
2022/03/03 13:58:04;;;;;;;13.88;10.90;;;;;;;;;;4994562;28;89350;-67
2022/03/03 14:00:33;;;;;;;14.98;11.00;;;;;;;;;;4976704;28;91157;-68
2022/03/03 14:03:03;;;;;;;15.43;10.20;;;;;;;;;;4982903;28;89510;-68
2022/03/03 14:05:41;;;;;;;13.52;10.43;;;;;;;;;;4994835;28;89215;-68
2022/03/03 14:08:30;;;;;;;15.27;10.18;;;;;;;;;;4990988;28;88872;-68
2022/03/03 14:10:58;;;;;;;;;;;;;;;;;;4992498;28;90537;-68
2022/03/03 14:13:26;;;;;;;15.27;10.68;;;;;;;;;;5002462;28;119661;-67
2022/03/03 14:15:54;;;;;;;12.80;10.10;;;;;;;;;;5010992;28;89012;-67
2022/03/03 14:18:21;;;;;;;12.55;10.30;;;;;;;;;;4996104;28;88998;-67
2022/03/03 14:20:49;;;;;;;12.35;9.90;;;;;;;;;;4995506;28;89982;-67
2022/03/03 14:23:18;;;;;;;14.43;9.75;;;;;;;;;;4998057;28;89906;-68